Silverthorne, CO (80497)

9:23 AM MDT on March 28, 2017 (GMT -0600)
Ski Area | | Change Station
Active Advisory: Winter Weather Advisory

Elev 10883 ft 39.68 °N, 105.90 °W | Updated 1 minute ago

Overcast
Overcast
27.1 °F
Feels Like 27 °F
N
0.0
Wind Variable Wind from WNW
Gusts 0.0 mph

Today
High -- | Low -- °F
--% Chance of Precip.
Yesterday
High -- | Low -- °F
Precip. -- in
Pressure 29.95 in
Visibility 0.2 miles
Clouds Overcast 100 ft
Windchill 27 °F
Dew Point 25 °F
Humidity 91%
Rainfall 0.00 in
Snow Depth Not available.
6:54 AM 7:24 PM
New Moon, 0% visible
METAR K0CO 281515Z AUTO 18003KT M1/4SM HZ OVC001 M07/M13 A2995 RMK AO2
Pressure 29.95 in
Visibility 0.2 miles
Clouds Overcast 100 ft
Windchill 27 °F
Dew Point 25 °F
Humidity 91%
Rainfall 0.00 in
Snow Depth Not available.
6:54 AM 7:24 PM
New Moon, 0% visible
METAR K0CO 281515Z AUTO 18003KT M1/4SM HZ OVC001 M07/M13 A2995 RMK AO2

Get Your Daily Forecast Email!

Thanks for signing up!

Be on the lookout for a verification email in your inbox.

You'll start receiving severe weather alerts in your inbox..

×

10-Day Weather Forecast

Almanac

Astronomy

Mar. 28, 2017 Rise Set
Actual Time
Civil Twilight
Nautical Twilight
Astronomical Twilight
Moon
Length of Visible Light
Length of Day
Tomorrow will be .
, % of the Moon is Illuminated

Today's Extremes

State Highs State Lows

Community

WunderPhotos

Upload Photos

1,962,540 photos uploaded!

WunderBlog® & News

Nearby

Air Quality

  Air Quality AQ Index Pollutant
Not available.

Snow Depth

Station Depth Elevation

Earthquake Activity

City Distance Mag. Time & Date
Minimum magnitude displayed is 2.5.

Earthquake Activity

City Distance Mag. Time & Date
Minimum magnitude displayed is 2.5.

Coastal Water Temperatures

Place Temperature

Stations

Nearby Weather Stations

Station Location Temp. Windchill Dew Point Humidity Wind Precip. Elev Updated Type
                   

Watches & Warnings

Winter Weather Advisory
Issued: 6:04 AM MDT Mar. 28, 2017 – National Weather Service

... Winter Weather Advisory in effect from 6 PM this evening to
6 am MDT Wednesday...

The National Weather Service in Denver has issued a Winter
Weather Advisory for snow, which is in effect from 6 PM this
evening to 6 am MDT Wednesday.

* Timing... snowfall will develop today and continue tonight, and
then diminish Wednesday morning.

* Snow accumulations... 4 to 9 inches, with the heavier snow
amounts on east facing slopes.

* Wind/visibility... periods of heavy snowfall and north winds to
25 mph will reduce visibilities to less than a half mile at
times.

* Impacts... roads will become slushy or snowpacked during the
period of heaviest snow tonight.

Precautionary/preparedness actions...

A Winter Weather Advisory for snow means that periods of snow
will cause primarily travel difficulties. Be prepared for snow
covered roads and limited visibilities... and use caution while
driving.


Baker